Time;durP1;ratioP1;P1;durP2;ratioP2;P2;SDS_P1;SDS_P2;PMS_P1;PMS_P2;Temp;Humidity;BMP_temperature;BMP_pressure;BME280_temperature;BME280_humidity;BME280_pressure;Samples;Min_cycle;Max_cycle;Signal;HPM_P1;HPM_P2
2021/12/30 00:01:11;;;;;;;15.80;12.00;;;14.40;99.90;;;;;;5072744;28;20416;-67
2021/12/30 00:03:38;;;;;;;15.37;12.80;;;14.40;99.90;;;;;;5072983;28;20419;-68
2021/12/30 00:06:04;;;;;;;18.50;12.97;;;14.40;99.90;;;;;;5071892;28;20420;-70
2021/12/30 00:08:30;;;;;;;16.13;11.90;;;14.40;99.90;;;;;;5071257;28;20430;-67
2021/12/30 00:10:56;;;;;;;20.60;13.47;;;14.40;99.90;;;;;;5070566;28;20411;-67
2021/12/30 00:13:22;;;;;;;14.00;12.40;;;14.30;99.90;;;;;;5071891;28;20264;-67
2021/12/30 00:15:48;;;;;;;20.37;12.37;;;14.30;99.90;;;;;;5068927;28;20428;-69
2021/12/30 00:18:15;;;;;;;18.03;10.53;;;14.30;99.90;;;;;;5069339;28;20426;-68
2021/12/30 00:20:40;;;;;;;20.20;12.00;;;14.40;99.90;;;;;;5072240;28;20502;-67
2021/12/30 00:23:08;;;;;;;15.93;11.30;;;14.30;99.90;;;;;;5072510;28;20525;-67
2021/12/30 00:25:40;;;;;;;17.40;11.03;;;14.40;99.90;;;;;;5074158;28;20415;-67
2021/12/30 00:28:09;;;;;;;20.13;10.10;;;14.30;99.90;;;;;;5072786;28;21098;-68
2021/12/30 00:30:35;;;;;;;13.83;9.90;;;14.40;99.90;;;;;;5073361;28;20419;-68
2021/12/30 00:33:00;;;;;;;17.67;9.53;;;14.30;99.90;;;;;;5072809;28;20418;-68
2021/12/30 00:35:26;;;;;;;18.17;9.40;;;14.30;99.90;;;;;;5073777;28;20177;-67
2021/12/30 00:37:52;;;;;;;84.13;60.10;;;14.30;99.90;;;;;;5072476;28;20576;-67
2021/12/30 00:40:17;;;;;;;58.97;34.60;;;14.30;99.90;;;;;;5055565;28;20204;-67
2021/12/30 00:42:43;;;;;;;15.57;10.90;;;14.30;99.90;;;;;;5071691;28;20228;-67
2021/12/30 00:45:09;;;;;;;11.93;8.70;;;14.20;99.90;;;;;;5071170;28;20252;-67
2021/12/30 00:47:35;;;;;;;12.50;7.80;;;14.20;99.90;;;;;;5068350;28;20473;-67
2021/12/30 00:50:01;;;;;;;11.45;8.00;;;14.20;99.90;;;;;;5070207;28;20921;-71
2021/12/30 00:52:27;;;;;;;14.73;7.90;;;14.40;99.90;;;;;;5070188;28;20218;-72
2021/12/30 00:54:53;;;;;;;12.47;7.70;;;15.00;99.90;;;;;;5069616;28;20451;-67
2021/12/30 00:57:19;;;;;;;15.03;6.83;;;15.60;99.90;;;;;;5070473;28;20227;-68
2021/12/30 00:59:45;;;;;;;12.70;7.30;;;15.70;99.90;;;;;;5071323;28;20191;-79
2021/12/30 01:02:10;;;;;;;10.23;6.30;;;15.60;99.90;;;;;;5069764;28;20448;-69
2021/12/30 01:04:36;;;;;;;12.50;6.97;;;15.40;99.90;;;;;;5071898;28;20247;-69
2021/12/30 01:07:02;;;;;;;16.10;6.40;;;15.20;99.90;;;;;;5071218;28;20249;-67
2021/12/30 01:09:28;;;;;;;18.47;6.97;;;15.10;99.90;;;;;;5071536;28;20247;-68
2021/12/30 01:11:55;;;;;;;9.57;6.53;;;15.00;99.90;;;;;;5070443;28;20208;-67
2021/12/30 01:14:24;;;;;;;12.97;6.00;;;14.80;99.90;;;;;;5071366;28;20424;-67
2021/12/30 01:16:55;;;;;;;10.87;6.37;;;14.80;99.90;;;;;;5070596;28;20419;-67
2021/12/30 01:19:42;;;;;;;9.20;6.30;;;14.60;99.90;;;;;;5071427;28;20396;-67
2021/12/30 01:22:07;;;;;;;10.00;5.43;;;14.60;99.90;;;;;;5070008;28;20471;-72
2021/12/30 01:24:33;;;;;;;13.27;6.50;;;14.50;99.90;;;;;;5071004;28;20448;-68
2021/12/30 01:26:59;;;;;;;12.03;6.60;;;14.50;99.90;;;;;;5070195;28;20906;-67
2021/12/30 01:29:27;;;;;;;12.33;6.30;;;14.50;99.90;;;;;;5071398;28;20169;-67
2021/12/30 01:31:52;;;;;;;17.00;6.10;;;14.50;99.90;;;;;;5071251;28;20218;-70
2021/12/30 01:34:18;;;;;;;14.70;5.50;;;14.40;99.90;;;;;;5072243;28;20442;-66
2021/12/30 01:36:44;;;;;;;14.00;8.77;;;14.30;99.90;;;;;;5069851;28;20177;-66
2021/12/30 01:39:09;;;;;;;12.13;6.67;;;14.30;99.90;;;;;;5069257;28;20222;-66
2021/12/30 01:41:35;;;;;;;15.17;6.40;;;14.20;99.90;;;;;;5069766;28;20208;-68
2021/12/30 01:44:01;;;;;;;14.83;6.70;;;14.20;99.90;;;;;;5070422;28;20185;-66
2021/12/30 01:46:40;;;;;;;10.30;6.17;;;14.30;99.90;;;;;;5070739;28;20692;-66
2021/12/30 01:49:06;;;;;;;10.10;5.73;;;14.30;99.90;;;;;;5051597;28;20176;-66
2021/12/30 01:51:32;;;;;;;8.80;5.50;;;14.30;99.90;;;;;;5059610;28;20495;-66
2021/12/30 01:53:58;;;;;;;8.83;5.73;;;14.20;99.90;;;;;;5070196;28;20415;-65
2021/12/30 01:56:24;;;;;;;9.87;5.03;;;14.20;99.90;;;;;;5070939;28;20169;-66
2021/12/30 01:58:50;;;;;;;16.90;5.83;;;14.20;99.90;;;;;;5070469;28;20267;-66
2021/12/30 02:01:16;;;;;;;10.00;7.03;;;14.20;99.90;;;;;;5071584;28;20537;-68
2021/12/30 02:03:41;;;;;;;12.40;6.63;;;14.20;99.90;;;;;;5071930;28;20281;-67
2021/12/30 02:06:07;;;;;;;11.70;6.70;;;14.30;99.90;;;;;;5071311;28;20228;-67
2021/12/30 02:08:33;;;;;;;9.80;6.60;;;14.20;99.90;;;;;;5071994;28;20242;-67
2021/12/30 02:10:59;;;;;;;11.70;6.57;;;14.20;99.90;;;;;;5070815;28;20636;-67
2021/12/30 02:13:25;;;;;;;13.60;7.17;;;14.20;99.90;;;;;;5072068;28;20212;-67
2021/12/30 02:15:51;;;;;;;12.53;7.23;;;14.10;99.90;;;;;;5069606;28;20473;-68
2021/12/30 02:18:18;;;;;;;15.47;7.73;;;14.20;99.90;;;;;;5071943;28;20439;-67
2021/12/30 02:21:06;;;;;;;12.23;6.90;;;14.30;99.90;;;;;;5070830;28;20419;-67
2021/12/30 02:23:34;;;;;;;19.70;7.33;;;14.20;99.90;;;;;;5071829;28;20495;-67
2021/12/30 02:26:07;;;;;;;11.10;6.73;;;14.20;99.90;;;;;;5070914;28;20406;-67
2021/12/30 02:28:35;;;;;;;12.43;6.20;;;14.20;99.90;;;;;;5071630;28;20391;-67
2021/12/30 02:31:04;;;;;;;14.70;6.83;;;14.20;99.90;;;;;;5069693;28;20979;-67
2021/12/30 02:33:30;;;;;;;10.60;6.47;;;14.20;99.90;;;;;;5071639;28;20412;-67
2021/12/30 02:35:56;;;;;;;16.10;6.47;;;14.30;99.90;;;;;;5069711;28;20419;-67
2021/12/30 02:38:23;;;;;;;13.27;7.10;;;14.30;99.90;;;;;;5070488;28;20764;-67
2021/12/30 02:40:53;;;;;;;17.60;6.87;;;14.30;99.90;;;;;;5070892;28;20402;-80
2021/12/30 02:43:21;;;;;;;9.00;6.43;;;14.20;99.90;;;;;;5069800;28;20511;-67
2021/12/30 02:45:47;;;;;;;13.27;6.13;;;14.30;99.90;;;;;;5071804;28;20953;-67
2021/12/30 02:48:19;;;;;;;13.37;6.80;;;14.30;99.90;;;;;;5074700;28;20450;-68
2021/12/30 02:50:47;;;;;;;12.73;6.30;;;14.30;99.90;;;;;;5056905;28;20447;-67
2021/12/30 02:53:14;;;;;;;14.43;6.50;;;14.40;99.90;;;;;;5055062;28;20461;-67
2021/12/30 02:55:42;;;;;;;10.40;6.00;;;14.40;99.90;;;;;;5054384;28;20407;-67
2021/12/30 02:58:08;;;;;;;10.67;6.07;;;14.40;99.90;;;;;;5070015;28;20412;-67
2021/12/30 03:00:34;;;;;;;9.20;6.17;;;14.50;99.90;;;;;;5054263;28;20421;-67
2021/12/30 03:03:00;;;;;;;11.33;5.97;;;14.50;99.90;;;;;;5054525;28;20448;-67
2021/12/30 03:05:26;;;;;;;8.80;6.20;;;14.50;99.90;;;;;;5074217;28;20427;-67
2021/12/30 03:07:52;;;;;;;12.17;6.80;;;14.60;99.90;;;;;;5074796;28;20371;-81
2021/12/30 03:10:20;;;;;;;13.73;6.77;;;14.60;99.90;;;;;;5074721;28;20664;-68
2021/12/30 03:12:52;;;;;;;13.40;8.97;;;14.60;99.90;;;;;;5075344;28;20469;-67
2021/12/30 03:15:19;;;;;;;8.90;5.40;;;14.60;99.90;;;;;;5073951;28;20438;-67
2021/12/30 03:17:44;;;;;;;9.67;6.87;;;14.60;99.90;;;;;;5056374;28;20457;-67
2021/12/30 03:20:11;;;;;;;12.43;7.10;;;14.60;99.90;;;;;;5074559;28;20412;-66
2021/12/30 03:22:40;;;;;;;13.40;7.40;;;14.50;99.90;;;;;;5073217;28;20196;-66
2021/12/30 03:25:08;;;;;;;11.97;7.50;;;14.50;99.90;;;;;;5074458;28;20419;-66
2021/12/30 03:27:35;;;;;;;9.57;6.67;;;14.50;99.90;;;;;;5074955;28;20422;-66
2021/12/30 03:30:01;;;;;;;15.57;7.60;;;14.50;99.90;;;;;;5073789;28;20778;-66
2021/12/30 03:32:27;;;;;;;13.23;7.80;;;14.40;99.90;;;;;;5074868;28;20426;-66
2021/12/30 03:34:52;;;;;;;11.03;7.30;;;14.40;99.90;;;;;;5073876;28;20911;-66
2021/12/30 03:37:19;;;;;;;11.27;7.50;;;14.50;99.90;;;;;;5074508;28;20425;-66
2021/12/30 03:39:47;;;;;;;11.50;6.90;;;14.50;99.90;;;;;;5074805;28;20207;-67
2021/12/30 03:42:13;;;;;;;7.80;6.40;;;14.50;99.90;;;;;;5073594;28;20450;-69
2021/12/30 03:44:39;;;;;;;7.87;6.93;;;14.50;99.90;;;;;;5073405;28;20899;-67
2021/12/30 03:47:06;;;;;;;7.73;6.37;;;14.70;99.90;;;;;;5073637;28;20458;-67
2021/12/30 03:49:32;;;;;;;6.80;6.20;;;14.80;99.90;;;;;;5073493;28;20610;-67
2021/12/30 03:51:57;;;;;;;9.10;5.77;;;15.10;99.90;;;;;;5072964;28;20473;-67
2021/12/30 03:54:23;;;;;;;6.77;6.17;;;15.20;99.90;;;;;;5074359;28;20217;-67
2021/12/30 03:56:49;;;;;;;7.07;6.37;;;15.20;99.90;;;;;;5072871;28;20194;-67
2021/12/30 03:59:15;;;;;;;9.67;7.50;;;15.20;99.90;;;;;;5072158;28;20178;-67
2021/12/30 04:01:41;;;;;;;8.70;6.57;;;15.20;99.90;;;;;;5072597;28;20212;-66
2021/12/30 04:04:07;;;;;;;7.30;6.67;;;15.20;99.90;;;;;;5073541;28;20759;-66
2021/12/30 04:06:33;;;;;;;7.47;6.37;;;15.20;99.90;;;;;;5073014;28;20402;-66
2021/12/30 04:08:59;;;;;;;8.37;6.73;;;15.10;99.90;;;;;;5072836;28;20838;-66
2021/12/30 04:11:26;;;;;;;8.17;6.67;;;15.10;99.90;;;;;;5070835;28;20416;-67
2021/12/30 04:13:52;;;;;;;8.30;6.80;;;15.10;99.90;;;;;;5070710;28;20435;-77
2021/12/30 04:16:19;;;;;;;7.70;6.90;;;15.10;99.90;;;;;;5064952;28;21165;-67
2021/12/30 04:18:48;;;;;;;10.67;8.20;;;15.00;99.90;;;;;;5054122;28;20413;-66
2021/12/30 04:21:16;;;;;;;7.87;7.07;;;15.00;99.90;;;;;;5060103;28;20528;-67
2021/12/30 04:23:43;;;;;;;10.47;7.40;;;14.90;99.90;;;;;;5073902;28;20767;-67
2021/12/30 04:26:08;;;;;;;8.43;7.30;;;14.90;99.90;;;;;;5072680;28;20506;-67
2021/12/30 04:28:34;;;;;;;11.43;7.60;;;14.90;99.90;;;;;;5074173;28;20859;-66
2021/12/30 04:31:00;;;;;;;8.40;7.43;;;14.90;99.90;;;;;;5073069;28;20177;-67
2021/12/30 04:33:26;;;;;;;9.53;7.27;;;14.90;99.90;;;;;;5074001;28;20412;-66
2021/12/30 04:35:56;;;;;;;8.40;7.00;;;14.90;99.90;;;;;;5073474;28;20172;-66
2021/12/30 04:38:27;;;;;;;9.83;7.70;;;14.90;99.90;;;;;;5073770;28;20245;-67
2021/12/30 04:40:53;;;;;;;7.73;6.93;;;14.90;99.90;;;;;;5073395;28;20390;-76
2021/12/30 04:43:19;;;;;;;9.63;7.10;;;14.80;99.90;;;;;;5072627;28;20478;-66
2021/12/30 04:45:46;;;;;;;8.70;7.63;;;14.80;99.90;;;;;;5071756;28;20452;-66
2021/12/30 04:48:13;;;;;;;15.77;10.97;;;14.70;99.90;;;;;;5072387;28;20434;-67
2021/12/30 04:50:39;;;;;;;7.53;6.80;;;14.70;99.90;;;;;;5072972;28;20526;-66
2021/12/30 04:53:05;;;;;;;6.90;6.30;;;14.70;99.90;;;;;;5072543;28;20499;-66
2021/12/30 04:55:31;;;;;;;6.90;6.30;;;14.80;99.90;;;;;;5073344;28;20256;-66
2021/12/30 04:57:56;;;;;;;10.13;7.57;;;14.80;99.90;;;;;;5072494;28;20499;-76
2021/12/30 05:00:22;;;;;;;8.80;7.10;;;14.90;99.90;;;;;;5072403;28;20185;-67
2021/12/30 05:05:36;;;;;;;6.43;5.90;;;14.80;99.90;;;;;;5071889;28;20422;-66
2021/12/30 05:08:01;;;;;;;6.30;5.70;;;14.80;99.90;;;;;;5071964;28;20506;-67
2021/12/30 05:10:27;;;;;;;5.70;5.10;;;14.80;99.90;;;;;;5072675;28;20550;-66
2021/12/30 05:12:53;;;;;;;4.43;4.13;;;14.90;99.90;;;;;;5072939;28;20174;-66
2021/12/30 05:15:19;;;;;;;6.00;4.70;;;14.90;99.90;;;;;;5071764;28;20553;-75
2021/12/30 05:17:44;;;;;;;4.37;3.97;;;14.90;99.90;;;;;;5071563;28;20181;-66
2021/12/30 05:20:12;;;;;;;4.30;4.10;;;14.90;99.90;;;;;;5072001;28;20222;-66
2021/12/30 05:22:39;;;;;;;4.60;4.30;;;14.90;99.90;;;;;;5072661;28;20233;-66
2021/12/30 05:25:05;;;;;;;3.70;3.50;;;15.00;99.90;;;;;;5054046;28;20421;-66
2021/12/30 05:27:31;;;;;;;4.00;3.80;;;15.00;99.90;;;;;;5072751;28;20469;-66
2021/12/30 05:29:57;;;;;;;4.47;4.27;;;15.00;99.90;;;;;;5072425;28;20408;-77
2021/12/30 05:32:22;;;;;;;4.10;3.83;;;15.00;99.90;;;;;;5071862;28;20183;-66
2021/12/30 05:34:48;;;;;;;4.40;4.20;;;15.00;99.90;;;;;;5072547;28;20174;-67
2021/12/30 05:37:14;;;;;;;3.97;3.77;;;15.00;99.90;;;;;;5071977;28;20521;-66
2021/12/30 05:39:41;;;;;;;4.00;3.70;;;15.00;99.90;;;;;;5072831;28;20211;-66
2021/12/30 05:42:08;;;;;;;3.50;3.40;;;15.00;99.90;;;;;;5071556;28;20260;-67
2021/12/30 05:44:33;;;;;;;4.60;4.37;;;15.00;99.90;;;;;;5072350;28;20451;-66
2021/12/30 05:46:59;;;;;;;3.47;3.37;;;15.00;99.90;;;;;;5058322;28;20553;-78
2021/12/30 05:49:25;;;;;;;3.30;3.10;;;15.10;99.90;;;;;;5071835;28;20181;-67
2021/12/30 05:51:51;;;;;;;3.20;3.10;;;15.00;99.90;;;;;;5072384;28;20184;-66
2021/12/30 05:54:16;;;;;;;3.60;3.40;;;15.00;99.90;;;;;;5071139;28;20705;-67
2021/12/30 05:56:42;;;;;;;3.73;3.37;;;15.00;99.90;;;;;;5072015;28;20177;-66
2021/12/30 05:59:08;;;;;;;3.30;3.20;;;15.10;99.90;;;;;;5071336;28;20688;-67
2021/12/30 06:01:33;;;;;;;3.60;3.40;;;15.00;99.90;;;;;;5071698;28;20513;-67
2021/12/30 06:03:59;;;;;;;4.60;4.40;;;15.10;99.90;;;;;;5071796;28;20623;-77
2021/12/30 06:06:25;;;;;;;3.90;3.70;;;15.10;99.90;;;;;;5071964;28;20181;-66
2021/12/30 06:08:53;;;;;;;4.03;3.83;;;15.10;99.90;;;;;;5071836;28;20227;-67
2021/12/30 06:11:18;;;;;;;2.77;2.77;;;15.10;99.90;;;;;;5071006;28;20450;-68
2021/12/30 06:13:44;;;;;;;2.93;2.53;;;15.10;99.90;;;;;;5071984;28;20405;-68
2021/12/30 06:16:10;;;;;;;2.60;2.60;;;15.10;99.90;;;;;;5064232;28;20585;-68
2021/12/30 06:18:35;;;;;;;3.20;3.10;;;15.10;99.90;;;;;;5057157;28;20183;-68
2021/12/30 06:21:01;;;;;;;2.90;2.80;;;15.20;99.90;;;;;;5071059;28;20224;-74
2021/12/30 06:23:27;;;;;;;2.70;2.60;;;15.20;99.90;;;;;;5071237;28;20177;-68
2021/12/30 06:25:52;;;;;;;3.67;3.47;;;15.20;99.90;;;;;;5071813;28;20536;-68
2021/12/30 06:28:18;;;;;;;3.00;2.90;;;15.30;99.90;;;;;;5070708;28;20207;-69
2021/12/30 06:30:44;;;;;;;2.60;2.60;;;15.20;99.90;;;;;;5067401;28;20256;-68
2021/12/30 06:33:09;;;;;;;2.80;2.70;;;15.30;99.90;;;;;;5070711;28;20190;-68
2021/12/30 06:35:35;;;;;;;3.07;2.97;;;15.20;99.90;;;;;;5071749;28;20202;-69
2021/12/30 06:38:02;;;;;;;2.93;2.83;;;15.20;99.90;;;;;;5070485;28;20190;-74
2021/12/30 06:40:28;;;;;;;2.70;2.60;;;15.20;99.90;;;;;;5071359;28;20202;-68
2021/12/30 06:42:54;;;;;;;3.00;2.90;;;15.20;99.90;;;;;;5071358;28;20995;-68
2021/12/30 06:45:20;;;;;;;3.47;3.30;;;15.20;99.90;;;;;;5070764;28;20461;-69
2021/12/30 06:47:47;;;;;;;3.30;3.20;;;15.30;99.90;;;;;;5070525;28;20427;-68
2021/12/30 06:50:15;;;;;;;3.40;3.30;;;15.20;99.90;;;;;;5070904;28;20475;-69
2021/12/30 06:52:42;;;;;;;4.63;4.43;;;15.20;99.90;;;;;;5071149;28;20431;-68
2021/12/30 06:55:09;;;;;;;3.80;3.60;;;15.20;99.90;;;;;;5070315;28;20432;-68
2021/12/30 06:57:35;;;;;;;4.10;4.00;;;15.20;99.90;;;;;;5069952;28;20456;-68
2021/12/30 07:00:03;;;;;;;4.10;3.80;;;15.10;99.90;;;;;;5071539;28;20931;-74
2021/12/30 07:02:29;;;;;;;3.83;3.73;;;15.10;99.90;;;;;;5071447;28;20467;-68
2021/12/30 07:04:55;;;;;;;4.10;3.90;;;15.10;99.90;;;;;;5070827;28;20432;-71
2021/12/30 07:07:21;;;;;;;4.33;4.13;;;15.20;99.90;;;;;;5057519;28;20181;-68
2021/12/30 07:09:47;;;;;;;4.80;4.50;;;15.10;99.90;;;;;;5070271;28;20178;-68
2021/12/30 07:12:13;;;;;;;4.40;4.20;;;15.10;99.90;;;;;;5068924;28;21410;-69
2021/12/30 07:14:39;;;;;;;4.40;4.20;;;15.10;99.90;;;;;;5071586;28;20464;-68
2021/12/30 07:17:05;;;;;;;4.87;4.57;;;15.10;99.90;;;;;;5055838;28;20457;-77
2021/12/30 07:19:31;;;;;;;4.70;4.50;;;15.20;99.90;;;;;;5051560;28;20671;-68
2021/12/30 07:21:56;;;;;;;4.13;3.93;;;15.20;99.90;;;;;;5053028;28;20200;-69
2021/12/30 07:24:22;;;;;;;4.03;3.60;;;15.60;99.90;;;;;;5069549;28;20336;-68
2021/12/30 07:26:49;;;;;;;3.60;3.40;;;16.10;99.90;;;;;;5070350;28;20184;-68
2021/12/30 07:29:15;;;;;;;3.47;3.37;;;16.60;99.90;;;;;;5069301;28;20184;-68
2021/12/30 07:31:41;;;;;;;3.70;3.60;;;17.00;99.90;;;;;;5070745;28;20435;-70
2021/12/30 07:34:07;;;;;;;3.90;3.70;;;17.30;99.90;;;;;;5062913;28;20519;-83
2021/12/30 07:36:33;;;;;;;3.73;3.53;;;17.20;99.90;;;;;;5061095;28;20206;-69
2021/12/30 07:38:58;;;;;;;3.40;3.30;;;17.10;99.90;;;;;;5069156;28;20585;-68
2021/12/30 07:41:24;;;;;;;4.23;4.00;;;16.90;99.90;;;;;;5069941;28;20250;-67
2021/12/30 07:43:50;;;;;;;3.50;3.40;;;16.70;99.90;;;;;;5074674;28;20184;-67
2021/12/30 07:46:16;;;;;;;3.20;3.10;;;16.50;99.90;;;;;;5072887;28;20457;-70
2021/12/30 07:48:42;;;;;;;4.90;4.60;;;16.20;99.90;;;;;;5074367;28;20691;-70
2021/12/30 07:51:07;;;;;;;4.60;3.50;;;16.20;99.90;;;;;;5073422;28;20207;-82
2021/12/30 07:53:33;;;;;;;4.03;3.83;;;16.20;99.90;;;;;;5072821;28;20198;-70
2021/12/30 07:56:01;;;;;;;4.17;3.97;;;16.20;99.90;;;;;;5073981;28;20188;-70
2021/12/30 07:58:28;;;;;;;4.07;3.77;;;16.20;99.90;;;;;;5071254;28;20644;-75
2021/12/30 08:00:54;;;;;;;3.60;3.50;;;16.30;99.90;;;;;;5074060;28;20432;-68
2021/12/30 08:03:19;;;;;;;3.67;3.57;;;16.30;99.90;;;;;;5073248;28;20813;-67
2021/12/30 08:05:45;;;;;;;3.43;3.33;;;16.20;99.90;;;;;;5073037;28;20913;-68
2021/12/30 08:08:11;;;;;;;3.80;3.60;;;16.10;99.90;;;;;;5072740;28;20184;-67
2021/12/30 08:10:37;;;;;;;3.90;3.80;;;16.00;99.90;;;;;;5073745;28;20187;-67
2021/12/30 08:13:03;;;;;;;3.43;3.33;;;16.00;99.90;;;;;;5072875;28;20806;-67
2021/12/30 08:15:29;;;;;;;3.60;3.50;;;15.80;99.90;;;;;;5072279;28;20215;-68
2021/12/30 08:17:55;;;;;;;4.10;3.90;;;15.80;99.90;;;;;;5073533;28;20413;-67
2021/12/30 08:20:22;;;;;;;4.10;3.90;;;15.70;99.90;;;;;;5059298;28;20781;-68
2021/12/30 08:22:50;;;;;;;3.97;3.77;;;15.70;99.90;;;;;;5073086;28;20198;-68
2021/12/30 08:25:16;;;;;;;5.20;4.90;;;15.60;99.90;;;;;;5072227;28;20475;-70
2021/12/30 08:27:42;;;;;;;4.47;4.27;;;15.70;99.90;;;;;;5073897;28;20428;-69
2021/12/30 08:30:11;;;;;;;5.73;5.27;;;15.70;99.90;;;;;;5073185;28;20430;-82
2021/12/30 08:32:37;;;;;;;5.20;4.90;;;15.80;99.90;;;;;;5073289;28;20763;-69
2021/12/30 08:35:04;;;;;;;4.23;3.93;;;15.80;99.90;;;;;;5073654;28;20419;-69
2021/12/30 08:37:31;;;;;;;5.20;4.90;;;15.90;99.90;;;;;;5072451;28;20419;-70
2021/12/30 08:39:56;;;;;;;5.33;5.00;;;16.00;99.90;;;;;;5072933;28;20460;-69
2021/12/30 08:42:28;;;;;;;8.17;7.63;;;16.00;99.90;;;;;;5071490;28;20501;-69
2021/12/30 08:44:56;;;;;;;5.30;5.10;;;16.10;99.90;;;;;;5072454;28;20195;-69
2021/12/30 08:47:22;;;;;;;4.80;4.50;;;16.20;99.90;;;;;;5072374;28;20755;-70
2021/12/30 08:49:49;;;;;;;5.60;5.13;;;16.20;99.90;;;;;;5072593;28;20822;-69
2021/12/30 08:52:18;;;;;;;4.07;3.80;;;16.10;99.90;;;;;;5072281;28;20473;-71
2021/12/30 08:54:45;;;;;;;18.50;13.13;;;16.20;99.90;;;;;;5052302;28;20958;-69
2021/12/30 08:57:11;;;;;;;14.83;11.40;;;16.40;99.90;;;;;;5071457;28;20419;-85
2021/12/30 08:59:37;;;;;;;6.50;5.93;;;16.90;99.90;;;;;;5071432;28;20434;-71
2021/12/30 09:02:05;;;;;;;6.70;6.07;;;17.20;99.90;;;;;;5068306;28;20470;-70
2021/12/30 09:04:31;;;;;;;6.03;5.43;;;17.50;99.90;;;;;;5072072;28;20454;-70
2021/12/30 09:06:57;;;;;;;4.70;4.40;;;17.90;99.90;;;;;;5072584;28;20478;-70
2021/12/30 09:09:24;;;;;;;4.50;4.20;;;18.10;99.90;;;;;;5072198;28;20502;-70
2021/12/30 09:11:50;;;;;;;3.30;3.20;;;18.30;99.90;;;;;;5072162;28;20950;-66
2021/12/30 09:14:16;;;;;;;3.00;2.90;;;18.40;99.90;;;;;;5071728;28;20447;-67
2021/12/30 09:16:42;;;;;;;3.80;3.60;;;18.10;99.90;;;;;;5071029;28;20510;-66
2021/12/30 09:19:09;;;;;;;3.67;3.57;;;17.90;99.90;;;;;;5071122;28;20522;-67
2021/12/30 09:21:39;;;;;;;3.83;3.73;;;17.70;99.90;;;;;;5072113;28;20455;-66
2021/12/30 09:24:06;;;;;;;4.23;4.03;;;17.50;99.90;;;;;;5071818;28;20931;-67
2021/12/30 09:26:32;;;;;;;3.80;3.70;;;17.20;99.90;;;;;;5071640;28;20427;-68
2021/12/30 09:28:58;;;;;;;165.77;111.80;;;17.00;99.90;;;;;;5071597;28;20942;-68
2021/12/30 09:31:23;;;;;;;196.03;135.50;;;16.90;99.90;;;;;;5071127;28;20437;-69
2021/12/30 09:33:49;;;;;;;8.77;8.07;;;16.70;99.90;;;;;;5072151;28;20191;-69
2021/12/30 09:36:15;;;;;;;5.07;4.77;;;16.50;99.90;;;;;;5071722;28;20172;-75
2021/12/30 09:38:41;;;;;;;6.10;5.60;;;16.40;99.90;;;;;;5071504;28;20208;-71
2021/12/30 09:41:06;;;;;;;6.73;6.13;;;16.40;99.90;;;;;;5052526;28;20211;-71
2021/12/30 09:43:34;;;;;;;26.57;20.27;;;16.50;99.90;;;;;;5050167;28;20687;-70
2021/12/30 09:46:00;;;;;;;27.07;20.13;;;16.70;99.90;;;;;;5052237;28;20473;-70
2021/12/30 09:48:26;;;;;;;94.30;67.73;;;16.90;99.90;;;;;;5060573;28;20476;-66
2021/12/30 09:50:54;;;;;;;5.57;5.13;;;17.10;99.90;;;;;;5071475;28;20918;-66
2021/12/30 09:53:24;;;;;;;3.40;3.30;;;17.10;99.90;;;;;;5070924;28;20514;-67
2021/12/30 09:55:57;;;;;;;3.87;3.67;;;16.90;99.90;;;;;;5072040;28;20761;-68
2021/12/30 09:58:23;;;;;;;4.40;4.20;;;16.90;99.90;;;;;;5071255;28;20416;-68
2021/12/30 10:00:49;;;;;;;4.00;3.70;;;16.80;99.90;;;;;;5072245;28;20486;-68
2021/12/30 10:03:15;;;;;;;4.43;4.13;;;16.70;99.90;;;;;;5071566;28;20460;-74
2021/12/30 10:05:41;;;;;;;3.70;3.60;;;16.60;99.90;;;;;;5070912;28;20417;-68
2021/12/30 10:08:18;;;;;;;3.57;3.37;;;16.50;99.90;;;;;;5071968;28;20263;-68
2021/12/30 10:10:52;;;;;;;3.90;3.70;;;16.40;99.90;;;;;;5070819;28;20410;-68
2021/12/30 10:13:24;;;;;;;3.87;3.67;;;16.20;99.90;;;;;;5069985;28;20458;-68
2021/12/30 10:16:04;;;;;;;3.73;3.50;;;16.20;99.90;;;;;;5070807;28;20937;-68
2021/12/30 10:18:46;;;;;;;3.60;3.40;;;16.20;99.90;;;;;;5070145;28;20403;-68
2021/12/30 10:21:19;;;;;;;4.83;4.53;;;16.10;99.90;;;;;;5072244;28;20584;-68
2021/12/30 10:23:49;;;;;;;3.80;3.60;;;16.10;99.90;;;;;;5072185;28;20436;-68
2021/12/30 10:26:16;;;;;;;4.23;3.70;;;16.00;99.90;;;;;;5071282;28;20910;-82
2021/12/30 10:28:43;;;;;;;4.70;4.40;;;16.00;99.90;;;;;;5072108;28;20501;-68
2021/12/30 10:31:12;;;;;;;4.40;4.20;;;16.00;99.90;;;;;;5070981;28;20410;-68
2021/12/30 10:33:54;;;;;;;5.23;5.03;;;16.00;99.90;;;;;;5071704;28;20422;-68
2021/12/30 10:36:27;;;;;;;5.50;5.10;;;16.00;99.90;;;;;;5070460;28;20422;-69
2021/12/30 10:39:13;;;;;;;5.50;5.20;;;16.00;99.90;;;;;;5071876;28;20433;-68
2021/12/30 10:41:39;;;;;;;28.20;25.10;;;16.10;99.90;;;;;;5072377;28;20450;-68
2021/12/30 10:44:05;;;;;;;116.20;101.27;;;16.00;99.90;;;;;;5071155;28;20437;-68
2021/12/30 10:46:32;;;;;;;7.82;7.22;;;16.10;99.90;;;;;;5071155;28;20432;-67
2021/12/30 10:49:08;;;;;;;7.00;6.60;;;16.10;99.90;;;;;;5070717;28;20180;-67
2021/12/30 10:51:41;;;;;;;8.40;7.60;;;16.10;99.90;;;;;;5071139;28;20561;-69
2021/12/30 10:54:28;;;;;;;6.50;6.00;;;16.30;99.90;;;;;;5059423;28;20435;-69
2021/12/30 10:56:55;;;;;;;5.30;5.00;;;16.80;99.90;;;;;;5059149;28;20423;-67
2021/12/30 10:59:27;;;;;;;5.70;5.40;;;16.90;99.90;;;;;;5070341;28;20791;-67
2021/12/30 11:02:17;;;;;;;5.80;5.50;;;16.90;99.90;;;;;;5071654;28;20442;-68
2021/12/30 11:04:53;;;;;;;5.77;5.47;;;16.80;99.90;;;;;;5071657;28;20411;-68
2021/12/30 11:07:27;;;;;;;7.80;7.20;;;16.60;99.90;;;;;;5074815;28;20402;-71
2021/12/30 11:09:56;;;;;;;8.07;7.37;;;16.60;99.90;;;;;;5075180;28;20441;-70
2021/12/30 11:12:26;;;;;;;6.60;6.20;;;16.70;99.90;;;;;;5071990;28;20435;-71
2021/12/30 11:14:52;;;;;;;115.33;91.30;;;16.90;99.90;;;;;;5074513;28;20931;-69
2021/12/30 11:17:24;;;;;;;36.00;29.87;;;16.90;99.90;;;;;;5070796;28;20430;-67
2021/12/30 11:19:56;;;;;;;9.17;8.47;;;16.80;99.90;;;;;;5075189;28;20392;-70
2021/12/30 11:22:24;;;;;;;5.80;5.40;;;16.80;99.90;;;;;;5074376;28;20490;-69
2021/12/30 11:24:53;;;;;;;5.83;5.30;;;16.70;99.90;;;;;;5074748;28;20963;-69
2021/12/30 11:27:19;;;;;;;4.77;4.57;;;16.50;99.90;;;;;;5072251;28;20426;-70
2021/12/30 11:29:47;;;;;;;5.23;4.93;;;16.50;99.90;;;;;;5073159;28;20496;-70
2021/12/30 11:32:18;;;;;;;4.77;4.50;;;16.40;99.90;;;;;;5074936;28;20406;-86
2021/12/30 11:34:47;;;;;;;5.60;5.30;;;16.40;99.90;;;;;;5073425;28;20476;-69
2021/12/30 11:37:15;;;;;;;4.97;4.77;;;16.40;99.90;;;;;;5073042;28;20433;-85
2021/12/30 11:39:44;;;;;;;5.43;5.13;;;16.30;99.90;;;;;;5073172;28;20960;-71
2021/12/30 11:42:21;;;;;;;6.70;6.13;;;16.10;99.90;;;;;;5074054;28;20501;-72
2021/12/30 11:44:50;;;;;;;4.70;4.50;;;16.10;99.90;;;;;;5073618;28;20442;-80
2021/12/30 11:47:34;;;;;;;5.10;4.67;;;16.20;99.90;;;;;;5069990;28;20430;-82
2021/12/30 11:50:13;;;;;;;5.33;4.93;;;16.30;99.90;;;;;;5056120;28;20819;-71
2021/12/30 11:53:06;;;;;;;5.10;4.80;;;16.30;99.90;;;;;;5052756;28;20927;-71
2021/12/30 11:55:59;;;;;;;5.30;4.97;;;16.30;99.90;;;;;;5054137;28;20404;-71
2021/12/30 11:58:40;;;;;;;4.73;4.43;;;16.20;99.90;;;;;;5071538;28;20449;-71
2021/12/30 12:01:12;;;;;;;4.70;4.33;;;16.20;99.90;;;;;;5073641;28;20512;-70
2021/12/30 12:03:48;;;;;;;5.10;4.70;;;16.20;99.90;;;;;;5072932;28;20482;-70
2021/12/30 12:08:56;;;;;;;4.30;4.00;;;16.20;99.90;;;;;;5072942;28;20427;-71
2021/12/30 12:11:27;;;;;;;5.57;4.70;;;16.30;99.90;;;;;;5072133;28;20929;-71
2021/12/30 12:13:55;;;;;;;4.50;4.20;;;16.30;99.90;;;;;;5073953;28;20415;-70
2021/12/30 12:17:00;;;;;;;4.20;3.90;;;16.30;99.90;;;;;;5064570;28;20922;-70
2021/12/30 12:19:46;;;;;;;4.20;3.90;;;16.30;99.90;;;;;;5065987;28;20942;-70
2021/12/30 12:22:18;;;;;;;4.17;3.90;;;16.40;99.90;;;;;;5072597;28;20465;-72
2021/12/30 12:24:46;;;;;;;4.43;4.03;;;16.40;99.90;;;;;;5071110;28;20988;-70
2021/12/30 12:27:30;;;;;;;4.27;4.00;;;16.40;99.90;;;;;;5073704;28;20411;-70
2021/12/30 12:29:57;;;;;;;4.33;4.03;;;16.30;99.90;;;;;;5073826;28;20496;-70
2021/12/30 12:32:29;;;;;;;4.77;4.40;;;16.30;99.90;;;;;;5072786;28;20902;-70
2021/12/30 12:34:58;;;;;;;4.17;3.97;;;16.30;99.90;;;;;;5073741;28;20434;-70
2021/12/30 12:37:30;;;;;;;5.00;4.70;;;16.30;99.90;;;;;;5070787;28;20568;-71
2021/12/30 12:40:01;;;;;;;5.47;4.70;;;16.30;99.90;;;;;;5060565;28;20438;-70
2021/12/30 12:42:48;;;;;;;4.83;4.43;;;16.40;99.90;;;;;;5057850;28;20883;-72
2021/12/30 12:45:27;;;;;;;4.97;4.57;;;16.60;99.90;;;;;;5067742;28;20471;-79
2021/12/30 12:48:20;;;;;;;4.57;4.27;;;16.70;99.90;;;;;;5065161;28;20438;-70
2021/12/30 12:50:59;;;;;;;5.90;5.40;;;16.90;99.90;;;;;;5071025;28;20423;-71
2021/12/30 12:53:28;;;;;;;5.23;4.90;;;16.90;99.90;;;;;;5063140;28;20462;-73